Aérodrome :
LOGIN :

S'inscrire | Disclaimer

   EN    FR    IT 

 










Légende :    VFR   VFR Marginal   IFR   IFR Intensif   IFR Très Intensif
Visi : 
Plafond : 
>= 8 km
>= 3000ft
5 à 8 km
1000 à 3000 ft
1500m à 5 km
500 à 1000 ft
800 à 1500m
200 à 500 ft
< 800m
< 200 ft
Symboles :   Orages  Brouillard  Fortes neiges  Fortes précipitations  Vent > 20 kt
SIGMETs :   Divers  Orages  Givrage  Turbulence  Onde Orograph.  Cendres Volcan.







- Altitude de l'aérodrome : 42 ft
- Code IATA : KGD


UMKK - Khrabrava - Kaliningrad

DERNIER METAR :
  • 251100Z 04005MPS CAVOK 26/17 Q1026 R24/CLRD95 NOSIG RMK QFE768/1025

METARs EXPIRÉS :
  • 251030Z 04005MPS 010V070 CAVOK 25/16 Q1026 R24/CLRD95 NOSIG RMK QFE769/1025
  • 251000Z 03005MPS 360V060 CAVOK 25/16 Q1026 R24/CLRD95 NOSIG RMK QFE769/1025
  • 250930Z 13002MPS CAVOK 26/15 Q1027 R24/95D NOSIG RMK QFE769/1025
  • 250900Z 12002MPS 080V210 CAVOK 25/16 Q1027 R24/CLRD95 NOSIG RMK QFE769/1025
  • 250830Z 12002MPS 070V160 CAVOK 24/15 Q1027 R24/CLRD95 NOSIG RMK QFE769/1025

TAF TAF UMKK
Valide du 25 à 09h jusqu'au 26 à 09h UTC


250759Z 2509/2609 12003G08MPS CAVOK
BECMG 2513/2515 05003G08MPS
BECMG 2521/2523 13003G08MPS
TEMPO 2521/2604 3100 BR MIFG FEW002
PROB40
TEMPO 2521/2604 0500 PRFG
Pas de NOTAMs connus pour ce terrain.



MET'MAP, la Météo Aéronautique d'un coup d'oeil ! - Copyright ORBIFLY Décembre 2007 - Disclaimer

ORBIFLY MET'MAP TEAM :

Programmation & Développement : Alexandra Zaïnal
Conception & Développement : Baudouin d'Aumeries
Co-Programmation & Développement : Marc-Olivier Méhu
Soutien technique & logistique : Manuel Goepfert

Contact : metmap@orbifly.com




SOURCES & CREDITS :

   NOAA